Terminal Aerodrome Forecast
Issued by NWS

Home | Current Version | Previous Version | Text Only | Print | Product List | Glossary On
Versions: 1 2 3 4 5 6 7 8 9 10 11 12 13
000
FTUS44 KCRP 152342
TAFLRD
TAF
KLRD 152342Z 1600/1624 VRB03KT P6SM OVC100
      TEMPO 1600/1602 -RA
     FM161000 VRB05KT P6SM -RA OVC050
     FM161600 03006KT 5SM -RA BR BKN012=

USA.gov is the U.S. government's official web portal to all federal, state and local government web resources and services.